Time,TemperatureF,DewpointF,PressureIn,WindDirection,WindDirectionDegrees,WindSpeedMPH,WindSpeedGustMPH,Humidity,HourlyPrecipIn,Conditions,Clouds,dailyrainin,SolarRadiationWatts/m^2,SoftwareType,DateUTC
2017-05-23 00:04:00,54.0,52.6,29.83,West,273,0.0,0.0,95,0.02,RA,,0.00,0.0,WeatherDisplay:10.37,2017-05-23 05:04:00,
2017-05-23 00:09:00,53.9,52.5,29.83,West,273,0.0,0.0,95,0.01,RA,,0.00,0.0,WeatherDisplay:10.37,2017-05-23 05:09:00,
2017-05-23 00:14:00,53.7,52.3,29.83,West,273,0.0,0.0,95,0.01,CLR,,0.00,0.0,WeatherDisplay:10.37,2017-05-23 05:14:00,
2017-05-23 00:19:00,53.7,52.3,29.83,West,273,0.0,0.0,95,0.01,CLR,,0.00,0.0,WeatherDisplay:10.37,2017-05-23 05:19:00,
2017-05-23 00:24:00,53.6,52.2,29.83,West,273,0.0,0.0,95,0.01,CLR,,0.00,0.0,WeatherDisplay:10.37,2017-05-23 05:24:00,
2017-05-23 00:29:00,53.7,52.3,29.83,West,273,0.0,0.0,95,0.01,CLR,,0.00,0.0,WeatherDisplay:10.37,2017-05-23 05:29:00,
2017-05-23 00:34:00,53.7,52.3,29.83,West,273,0.0,0.0,95,0.01,CLR,,0.00,0.0,WeatherDisplay:10.37,2017-05-23 05:34:00,
2017-05-23 00:39:00,53.6,52.2,29.83,West,272,0.0,0.0,95,0.01,CLR,,0.00,0.0,WeatherDisplay:10.37,2017-05-23 05:39:00,
2017-05-23 00:44:00,53.5,52.1,29.82,West,273,0.0,0.0,95,0.00,CLR,,0.01,0.0,WeatherDisplay:10.37,2017-05-23 05:44:00,
2017-05-23 00:49:00,53.4,52.0,29.82,West,273,0.0,0.0,95,0.01,RA,,0.01,0.0,WeatherDisplay:10.37,2017-05-23 05:49:00,
2017-05-23 00:54:00,53.3,51.9,29.82,West,273,0.0,0.0,95,0.01,RA,,0.01,0.0,WeatherDisplay:10.37,2017-05-23 05:54:00,
2017-05-23 00:59:00,53.2,51.8,29.82,West,273,0.0,0.0,95,0.01,CLR,,0.01,0.0,WeatherDisplay:10.37,2017-05-23 05:59:00,
2017-05-23 01:04:00,53.1,51.7,29.82,West,280,0.0,0.0,95,0.01,CLR,,0.01,0.0,WeatherDisplay:10.37,2017-05-23 06:04:00,
2017-05-23 01:05:00,53.1,51.7,29.82,West,281,0.0,0.0,95,0.01,CLR,,0.01,0.0,WeatherDisplay:10.37,2017-05-23 06:05:00,
2017-05-23 01:10:00,53.1,51.7,29.82,West,273,0.0,0.0,95,0.01,CLR,,0.01,0.0,WeatherDisplay:10.37,2017-05-23 06:10:00,
2017-05-23 01:15:00,53.0,51.3,29.82,NW,319,0.0,0.0,94,0.01,CLR,,0.01,0.0,WeatherDisplay:10.37,2017-05-23 06:15:00,
2017-05-23 01:20:00,52.9,51.2,29.81,NW,319,0.0,0.0,94,0.01,CLR,,0.01,0.0,WeatherDisplay:10.37,2017-05-23 06:20:00,
2017-05-23 01:25:00,52.8,51.1,29.81,NW,319,0.0,0.0,94,0.01,CLR,,0.01,0.0,WeatherDisplay:10.37,2017-05-23 06:25:00,
2017-05-23 01:30:00,52.7,50.7,29.81,NW,317,0.0,0.0,93,0.01,CLR,,0.01,0.0,WeatherDisplay:10.37,2017-05-23 06:30:00,
2017-05-23 01:35:00,52.7,50.7,29.81,NW,317,0.0,0.0,93,0.01,CLR,,0.01,0.0,WeatherDisplay:10.37,2017-05-23 06:35:00,
2017-05-23 01:40:00,52.6,50.6,29.81,NW,318,0.0,0.0,93,0.01,CLR,,0.01,0.0,WeatherDisplay:10.37,2017-05-23 06:40:00,
2017-05-23 01:45:00,52.6,50.6,29.81,NW,317,0.0,0.0,93,0.00,CLR,,0.01,0.0,WeatherDisplay:10.37,2017-05-23 06:45:00,
2017-05-23 01:50:00,52.6,50.6,29.81,NW,317,0.0,0.0,93,0.00,CLR,,0.01,0.0,WeatherDisplay:10.37,2017-05-23 06:50:00,
2017-05-23 01:55:00,52.5,50.5,29.80,NW,317,0.0,0.0,93,0.00,CLR,,0.01,0.0,WeatherDisplay:10.37,2017-05-23 06:55:00,
2017-05-23 02:00:00,52.5,50.5,29.81,NW,316,0.0,0.0,93,0.00,CLR,,0.01,0.0,WeatherDisplay:10.37,2017-05-23 07:00:00,
2017-05-23 02:05:00,52.5,50.5,29.80,WNW,286,0.0,0.0,93,0.00,CLR,,0.01,0.0,WeatherDisplay:10.37,2017-05-23 07:05:00,
2017-05-23 02:10:00,52.5,50.5,29.80,WNW,283,0.0,0.0,93,0.00,CLR,,0.01,0.0,WeatherDisplay:10.37,2017-05-23 07:10:00,